createdAt,value
2019-01-14T00:05:23.753Z,3.38
2019-01-14T00:07:51.895Z,3.33
2019-01-14T00:10:20.101Z,3.40
2019-01-14T00:12:48.304Z,3.37
2019-01-14T00:18:06.565Z,3.32
2019-01-14T00:20:34.471Z,3.40
2019-01-14T00:23:02.702Z,3.31
2019-01-14T00:26:10.994Z,2.85
2019-01-14T00:31:34.147Z,2.51
2019-01-14T00:36:52.139Z,2.06
2019-01-14T00:39:20.639Z,1.84
2019-01-14T00:44:44.414Z,1.94
2019-01-14T00:47:12.171Z,1.83
2019-01-14T00:49:40.246Z,1.88
2019-01-14T00:55:16.334Z,1.79
2019-01-14T00:57:44.482Z,1.91
2019-01-14T01:00:54.882Z,1.85
2019-01-14T01:03:23.223Z,1.94
2019-01-14T01:05:51.420Z,1.99
2019-01-14T01:08:19.623Z,1.89
2019-01-14T01:13:42.645Z,1.99
2019-01-14T01:16:10.512Z,1.98
2019-01-14T01:24:42.692Z,1.82
2019-01-14T01:27:10.512Z,1.92
2019-01-14T01:29:38.333Z,1.86
2019-01-14T01:32:06.894Z,1.83
2019-01-14T01:34:34.736Z,1.95
2019-01-14T01:37:02.563Z,2.04
2019-01-14T01:42:39.681Z,1.92
2019-01-14T01:45:48.407Z,1.83
2019-01-14T01:48:56.243Z,1.92
2019-01-14T01:51:24.384Z,2.00
2019-01-14T01:54:32.931Z,1.89
2019-01-14T01:57:41.068Z,1.87
2019-01-14T02:00:29.827Z,2.00
2019-01-14T02:08:47.482Z,2.15
2019-01-14T02:11:15.349Z,2.01
2019-01-14T02:13:43.854Z,1.94
2019-01-14T02:16:12.062Z,1.92
2019-01-14T02:18:40.538Z,1.85
2019-01-14T02:21:48.360Z,1.83
2019-01-14T02:24:56.167Z,1.97
2019-01-14T02:27:24.600Z,1.98
2019-01-14T02:32:48.014Z,2.06
2019-01-14T02:35:15.803Z,1.83
2019-01-14T02:37:44.352Z,1.81
2019-01-14T02:40:14.751Z,1.87
2019-01-14T02:42:42.839Z,1.84
2019-01-14T02:45:32.409Z,1.75
2019-01-14T02:48:00.490Z,1.80
2019-01-14T02:51:08.991Z,1.74
2019-01-14T02:53:37.388Z,1.66
2019-01-14T02:56:04.859Z,1.51
2019-01-14T02:58:32.920Z,1.54
2019-01-14T03:01:01.399Z,1.47
2019-01-14T03:03:28.752Z,1.46
2019-01-14T03:06:37.222Z,1.40
2019-01-14T03:09:46.496Z,1.45
2019-01-14T03:12:14.958Z,1.33
2019-01-14T03:17:52.065Z,1.50
2019-01-14T03:23:15.613Z,1.71
2019-01-14T03:25:44.164Z,1.68
2019-01-14T03:28:12.693Z,1.69
2019-01-14T03:30:41.103Z,1.62
2019-01-14T03:33:08.914Z,1.53
2019-01-14T03:35:36.952Z,1.62
2019-01-14T03:38:04.751Z,1.71
2019-01-14T03:40:32.972Z,1.83
2019-01-14T03:43:01.532Z,1.90
2019-01-14T03:46:10.062Z,1.78
2019-01-14T03:48:38.252Z,1.80
2019-01-14T03:54:15.057Z,1.77
2019-01-14T03:56:42.795Z,1.68
2019-01-14T03:59:50.632Z,1.76
2019-01-14T04:02:19.072Z,1.64
2019-01-14T04:04:47.501Z,1.72
2019-01-14T04:07:15.637Z,1.72
2019-01-14T04:09:43.449Z,1.75
2019-01-14T04:12:11.896Z,1.78
2019-01-14T04:14:40.070Z,1.77
2019-01-14T04:20:57.391Z,1.72
2019-01-14T04:26:52.993Z,1.77
2019-01-14T04:29:21.143Z,1.60
2019-01-14T04:31:49.281Z,1.50
2019-01-14T04:34:17.214Z,1.50
2019-01-14T04:39:54.037Z,1.40
2019-01-14T04:42:22.324Z,1.36
2019-01-14T04:44:50.459Z,1.38
2019-01-14T04:47:58.681Z,1.28
2019-01-14T04:51:07.143Z,1.27
2019-01-14T04:53:35.551Z,1.37
2019-01-14T04:56:03.713Z,1.40
2019-01-14T04:58:32.222Z,1.39
2019-01-14T05:01:00.767Z,1.42
2019-01-14T05:04:09.292Z,1.15
2019-01-14T05:06:37.571Z,1.10
2019-01-14T05:12:21.528Z,1.18
2019-01-14T05:17:58.346Z,1.32
2019-01-14T05:21:07.339Z,1.43
2019-01-14T05:24:15.818Z,1.36
2019-01-14T05:26:43.995Z,1.22
2019-01-14T05:32:21.033Z,1.30
2019-01-14T05:34:49.587Z,1.33
2019-01-14T05:37:58.081Z,1.30
2019-01-14T05:40:26.952Z,1.33
2019-01-14T05:42:55.452Z,1.45
2019-01-14T05:45:24.038Z,1.41
2019-01-14T05:47:51.881Z,1.43
2019-01-14T05:50:20.025Z,1.47
2019-01-14T05:55:43.568Z,1.39
2019-01-14T05:58:11.771Z,1.39
2019-01-14T06:04:13.619Z,1.40
2019-01-14T06:09:50.063Z,1.26
2019-01-14T06:15:26.548Z,1.30
2019-01-14T06:17:54.924Z,1.27
2019-01-14T06:20:42.683Z,1.30
2019-01-14T06:23:10.724Z,1.26
2019-01-14T06:25:38.810Z,1.24
2019-01-14T06:28:47.334Z,1.22
2019-01-14T06:31:15.505Z,1.18
2019-01-14T06:33:42.906Z,1.10
2019-01-14T06:36:51.381Z,1.04
2019-01-14T06:39:18.861Z,1.11
2019-01-14T06:41:47.107Z,1.11
2019-01-14T06:44:14.915Z,1.11
2019-01-14T06:47:23.394Z,1.10
2019-01-14T06:49:51.539Z,1.14
2019-01-14T06:52:19.312Z,1.14
2019-01-14T06:54:47.135Z,1.12
2019-01-14T07:00:12.595Z,1.15
2019-01-14T07:02:40.690Z,1.16
2019-01-14T07:05:09.271Z,1.15
2019-01-14T07:07:37.875Z,1.11
2019-01-14T07:10:06.645Z,1.04
2019-01-14T07:12:35.192Z,1.02
2019-01-14T07:18:12.030Z,0.97
2019-01-14T07:21:20.257Z,0.85
2019-01-14T07:23:48.400Z,0.96
2019-01-14T07:26:16.484Z,1.03
2019-01-14T07:28:44.642Z,1.06
2019-01-14T07:31:13.247Z,1.02
2019-01-14T07:33:41.414Z,1.10
2019-01-14T07:36:49.945Z,1.09
2019-01-14T07:39:58.039Z,1.10
2019-01-14T07:45:26.500Z,1.19
2019-01-14T07:47:54.987Z,1.13
2019-01-14T07:50:23.600Z,1.13
2019-01-14T07:52:51.661Z,1.10
2019-01-14T07:55:20.073Z,1.14
2019-01-14T07:57:47.487Z,1.17
2019-01-14T08:00:36.177Z,1.19
2019-01-14T08:03:04.059Z,1.20
2019-01-14T08:05:32.074Z,1.20
2019-01-14T08:08:40.619Z,1.17
2019-01-14T08:11:08.365Z,1.32
2019-01-14T08:13:36.865Z,1.34
2019-01-14T08:16:04.981Z,1.37
2019-01-14T08:18:33.213Z,1.38
2019-01-14T08:21:41.711Z,1.40
2019-01-14T08:24:09.904Z,1.43
2019-01-14T08:26:38.291Z,1.48
2019-01-14T08:29:06.396Z,1.48
2019-01-14T08:31:34.557Z,1.47
2019-01-14T08:34:03.225Z,1.47
2019-01-14T08:36:30.902Z,1.48
2019-01-14T08:38:58.978Z,1.55
2019-01-14T08:42:07.058Z,1.51
2019-01-14T08:47:17.246Z,1.57
2019-01-14T08:49:45.751Z,1.73
2019-01-14T08:52:13.830Z,1.79
2019-01-14T08:54:42.293Z,1.84
2019-01-14T08:57:10.821Z,1.86
2019-01-14T08:59:39.298Z,1.94
2019-01-14T09:02:07.850Z,2.04
2019-01-14T09:04:35.921Z,2.13
2019-01-14T09:07:44.452Z,2.17
2019-01-14T09:10:53.744Z,2.31
2019-01-14T09:13:21.861Z,2.39
2019-01-14T09:15:50.322Z,2.43
2019-01-14T09:18:18.389Z,2.50
2019-01-14T09:20:46.517Z,2.44
2019-01-14T09:23:13.913Z,2.64
2019-01-14T09:25:42.418Z,2.60
2019-01-14T09:28:10.124Z,2.65
2019-01-14T09:30:38.733Z,2.67
2019-01-14T09:33:07.025Z,2.72
2019-01-14T09:35:35.538Z,2.70
2019-01-14T09:38:03.723Z,2.82
2019-01-14T09:40:32.122Z,3.06
2019-01-14T09:43:00.194Z,3.13
2019-01-14T09:45:27.563Z,3.12
2019-01-14T09:47:55.725Z,2.97
2019-01-14T09:50:23.820Z,2.77
2019-01-14T09:52:51.907Z,2.54
2019-01-14T09:55:20.581Z,2.40
2019-01-14T09:57:48.338Z,2.37
2019-01-14T10:00:56.445Z,2.34
2019-01-14T10:03:24.511Z,2.34
2019-01-14T10:05:52.898Z,2.39
2019-01-14T10:08:21.385Z,2.41
2019-01-14T10:10:49.470Z,2.41
2019-01-14T10:13:17.939Z,2.42
2019-01-14T10:15:46.436Z,2.33
2019-01-14T10:18:14.189Z,2.40
2019-01-14T10:20:42.654Z,2.42
2019-01-14T10:23:10.706Z,2.32
2019-01-14T10:25:39.241Z,2.37
2019-01-14T10:28:07.672Z,2.37
2019-01-14T10:30:35.814Z,2.30
2019-01-14T10:33:03.948Z,2.23
2019-01-14T10:35:31.653Z,2.15
2019-01-14T10:37:59.750Z,2.08
2019-01-14T10:40:27.510Z,2.00
2019-01-14T10:42:56.003Z,1.94
2019-01-14T10:48:15.799Z,2.01
2019-01-14T10:53:52.235Z,1.97
2019-01-14T10:56:20.034Z,1.85
2019-01-14T10:59:06.910Z,1.79
2019-01-14T11:01:35.429Z,1.76
2019-01-14T11:04:03.190Z,1.72
2019-01-14T11:06:30.994Z,1.64
2019-01-14T11:09:05.735Z,1.57
2019-01-14T11:11:29.405Z,1.44
2019-01-14T11:13:57.592Z,1.40
2019-01-14T11:16:25.322Z,1.30
2019-01-14T11:18:53.829Z,1.25
2019-01-14T11:21:22.358Z,1.24
2019-01-14T11:24:30.825Z,1.18
2019-01-14T11:27:39.024Z,1.14
2019-01-14T11:33:44.113Z,1.21
2019-01-14T11:36:12.711Z,1.12
2019-01-14T11:39:05.012Z,1.00
2019-01-14T11:45:05.068Z,0.90
2019-01-14T11:47:33.195Z,0.89
2019-01-14T11:50:01.311Z,0.78
2019-01-14T11:53:09.447Z,0.85
2019-01-14T11:55:37.290Z,0.83
2019-01-14T11:58:05.463Z,0.83
2019-01-14T12:00:36.899Z,0.78
2019-01-14T12:03:43.578Z,0.79
2019-01-14T12:06:12.144Z,0.81
2019-01-14T12:08:40.660Z,0.89
2019-01-14T12:11:09.229Z,0.92
2019-01-14T12:13:37.714Z,0.98
2019-01-14T12:19:14.702Z,1.24
2019-01-14T12:21:43.180Z,1.29
2019-01-14T12:24:11.715Z,1.27
2019-01-14T12:29:35.882Z,1.38
2019-01-14T12:32:03.591Z,1.41
2019-01-14T12:41:15.528Z,1.36
2019-01-14T12:49:12.196Z,1.19
2019-01-14T12:52:20.706Z,1.12
2019-01-14T12:54:48.942Z,1.06
2019-01-14T12:57:36.625Z,1.08
2019-01-14T13:00:46.409Z,1.10
2019-01-14T13:03:54.544Z,1.15
2019-01-14T13:06:22.601Z,1.17
2019-01-14T13:09:30.737Z,1.11
2019-01-14T13:11:58.756Z,1.20
2019-01-14T13:14:27.261Z,1.36
2019-01-14T13:16:55.335Z,1.40
2019-01-14T13:19:23.510Z,1.52
2019-01-14T13:21:51.601Z,1.67
2019-01-14T13:24:19.411Z,1.74
2019-01-14T13:27:27.519Z,1.90
2019-01-14T13:29:55.316Z,1.97
2019-01-14T13:33:03.800Z,2.04
2019-01-14T13:39:06.286Z,1.89
2019-01-14T13:41:34.451Z,1.86
2019-01-14T13:47:16.969Z,1.69
2019-01-14T13:49:45.103Z,1.60
2019-01-14T13:52:13.596Z,1.57
2019-01-14T13:54:42.019Z,1.48
2019-01-14T13:57:10.152Z,1.38
2019-01-14T13:59:38.321Z,1.35
2019-01-14T14:02:46.915Z,1.33
2019-01-14T14:05:55.508Z,1.28
2019-01-14T14:14:27.694Z,0.43
2019-01-14T14:16:55.819Z,0.19
2019-01-14T14:19:24.342Z,0.07
2019-01-14T14:21:52.766Z,0.02
2019-01-14T14:24:20.650Z,-0.11
2019-01-14T14:26:48.528Z,-0.15
2019-01-14T14:29:17.154Z,-0.27
2019-01-14T14:31:45.596Z,-0.18
2019-01-14T14:34:14.152Z,-0.25
2019-01-14T14:36:41.912Z,-0.25
2019-01-14T14:39:09.779Z,-0.22
2019-01-14T14:41:37.177Z,-0.18
2019-01-14T14:44:05.036Z,-0.28
2019-01-14T14:46:33.489Z,-0.34
2019-01-14T14:49:01.999Z,-0.39
2019-01-14T14:51:29.762Z,-0.36
2019-01-14T14:53:57.751Z,-0.45
2019-01-14T14:56:25.819Z,-0.40
2019-01-14T14:58:54.289Z,-0.47
2019-01-14T15:04:30.725Z,-0.36
2019-01-14T15:07:38.855Z,-0.42
2019-01-14T15:10:47.470Z,-0.47
2019-01-14T15:13:15.540Z,-0.50
2019-01-14T15:15:43.754Z,-0.46
2019-01-14T15:18:12.271Z,-0.48
2019-01-14T15:26:44.612Z,-0.45
2019-01-14T15:29:12.669Z,-0.44
2019-01-14T15:32:20.780Z,-0.47
2019-01-14T15:34:49.501Z,-0.50
2019-01-14T15:37:17.731Z,-0.50
2019-01-14T15:39:45.905Z,-0.58
2019-01-14T15:42:54.335Z,-0.60
2019-01-14T15:48:59.236Z,-0.56
2019-01-14T15:52:07.437Z,-0.53
2019-01-14T15:55:15.629Z,-0.60
2019-01-14T15:57:43.815Z,-0.59
2019-01-14T16:00:13.931Z,-0.58
2019-01-14T16:03:22.431Z,-0.52
2019-01-14T16:06:30.565Z,-0.55
2019-01-14T16:08:59.036Z,-0.52
2019-01-14T16:11:27.430Z,-0.57
2019-01-14T16:17:22.373Z,-0.63
2019-01-14T16:19:50.446Z,-0.67
2019-01-14T16:22:18.640Z,-0.63
2019-01-14T16:24:46.809Z,-0.69
2019-01-14T16:27:14.939Z,-0.72
2019-01-14T16:32:52.183Z,-0.61
2019-01-14T16:38:47.875Z,-0.62
2019-01-14T16:44:24.879Z,-0.67
2019-01-14T16:46:53.237Z,-0.66
2019-01-14T16:49:21.334Z,-0.60
2019-01-14T16:51:49.527Z,-0.60
2019-01-14T16:54:17.819Z,-0.54
2019-01-14T16:59:41.243Z,-0.51
2019-01-14T17:02:09.112Z,-0.51
2019-01-14T17:04:37.000Z,-0.58
2019-01-14T17:07:05.079Z,-0.53
2019-01-14T17:09:33.636Z,-0.59
2019-01-14T17:12:01.750Z,-0.56
2019-01-14T17:14:29.837Z,-0.56
2019-01-14T17:16:57.821Z,-0.57
2019-01-14T17:19:26.299Z,-0.61
2019-01-14T17:21:54.445Z,-0.62
2019-01-14T17:24:22.684Z,-0.55
2019-01-14T17:26:51.261Z,-0.51
2019-01-14T17:29:19.078Z,-0.50
2019-01-14T17:31:47.578Z,-0.43
2019-01-14T17:34:15.708Z,-0.49
2019-01-14T17:36:43.572Z,-0.55
2019-01-14T17:39:12.131Z,-0.47
2019-01-14T17:44:29.290Z,-0.59
2019-01-14T17:47:37.499Z,-0.62
2019-01-14T17:50:46.524Z,-0.60
2019-01-14T17:53:14.677Z,-0.56
2019-01-14T17:55:43.137Z,-0.51
2019-01-14T17:58:51.691Z,-0.60
2019-01-14T18:03:53.985Z,-0.54
2019-01-14T18:06:21.823Z,-0.59
2019-01-14T18:08:50.351Z,-0.57
2019-01-14T18:11:18.607Z,-0.59
2019-01-14T18:13:46.717Z,-0.58
2019-01-14T18:16:15.260Z,-0.55
2019-01-14T18:18:43.842Z,-0.66
2019-01-14T18:21:13.832Z,-0.57
2019-01-14T18:23:42.325Z,-0.66
2019-01-14T18:26:10.531Z,-0.54
2019-01-14T18:28:39.050Z,-0.57
2019-01-14T18:31:06.814Z,-0.45
2019-01-14T18:33:34.605Z,-0.49
2019-01-14T18:36:03.250Z,-0.59
2019-01-14T18:38:30.616Z,-0.63
2019-01-14T18:40:58.387Z,-0.63
2019-01-14T18:43:26.576Z,-0.53
2019-01-14T18:45:55.056Z,-0.54
2019-01-14T18:48:23.621Z,-0.57
2019-01-14T18:50:51.976Z,-0.52
2019-01-14T18:53:19.722Z,-0.53
2019-01-14T18:55:48.141Z,-0.43
2019-01-14T18:58:16.097Z,-0.48
2019-01-14T19:00:44.737Z,-0.46
2019-01-14T19:03:12.936Z,-0.53
2019-01-14T19:05:41.203Z,-0.53
2019-01-14T19:08:09.948Z,-0.51
2019-01-14T19:10:38.593Z,-0.43
2019-01-14T19:13:07.392Z,-0.52
2019-01-14T19:15:35.911Z,-0.45
2019-01-14T19:18:04.143Z,-0.48
2019-01-14T19:20:32.342Z,-0.51
2019-01-14T19:23:00.527Z,-0.45
2019-01-14T19:25:28.620Z,-0.50
2019-01-14T19:27:56.907Z,-0.45
2019-01-14T19:30:24.641Z,-0.57
2019-01-14T19:32:53.167Z,-0.58
2019-01-14T19:35:21.861Z,-0.57
2019-01-14T19:37:49.898Z,-0.43
2019-01-14T19:41:01.931Z,-0.46
2019-01-14T19:43:29.448Z,-0.50
2019-01-14T19:45:58.098Z,-0.64
2019-01-14T19:48:26.446Z,-0.69
2019-01-14T19:50:54.914Z,-0.60
2019-01-14T19:53:22.859Z,-0.59
2019-01-14T19:55:51.552Z,-0.62
2019-01-14T19:58:20.295Z,-0.66
2019-01-14T20:00:48.497Z,-0.63
2019-01-14T20:03:16.846Z,-0.66
2019-01-14T20:05:44.694Z,-0.62
2019-01-14T20:11:08.987Z,-0.69
2019-01-14T20:13:32.360Z,-0.70
2019-01-14T20:16:00.243Z,-0.61
2019-01-14T20:19:08.391Z,-0.58
2019-01-14T20:22:16.954Z,-0.60
2019-01-14T20:25:25.564Z,-0.62
2019-01-14T20:27:53.417Z,-0.77
2019-01-14T20:30:23.573Z,-0.76
2019-01-14T20:32:52.148Z,-0.80
2019-01-14T20:35:20.355Z,-0.89
2019-01-14T20:37:48.848Z,-0.95
2019-01-14T20:40:17.076Z,-0.93
2019-01-14T20:42:45.375Z,-0.88
2019-01-14T20:45:53.858Z,-0.87
2019-01-14T20:48:22.309Z,-0.86
2019-01-14T20:50:50.510Z,-0.92
2019-01-14T20:53:18.598Z,-1.05
2019-01-14T20:55:46.483Z,-1.06
2019-01-14T20:58:14.823Z,-1.06
2019-01-14T21:00:42.519Z,-1.02
2019-01-14T21:03:11.077Z,-1.03
2019-01-14T21:05:39.181Z,-1.08
2019-01-14T21:08:08.562Z,-1.10
2019-01-14T21:10:56.101Z,-1.11
2019-01-14T21:13:24.295Z,-1.13
2019-01-14T21:15:53.344Z,-1.21
2019-01-14T21:18:22.303Z,-1.12
2019-01-14T21:21:10.253Z,-1.10
2019-01-14T21:23:39.531Z,-1.15
2019-01-14T21:26:08.616Z,-1.15
2019-01-14T21:28:36.802Z,-1.11
2019-01-14T21:31:04.952Z,-1.10
2019-01-14T21:33:33.249Z,-1.07
2019-01-14T21:36:02.438Z,-1.16
2019-01-14T21:38:50.170Z,-1.14
2019-01-14T21:41:38.012Z,-1.20
2019-01-14T21:46:41.424Z,-1.25
2019-01-14T21:49:50.466Z,-1.27
2019-01-14T21:52:19.199Z,-1.23
2019-01-14T21:54:47.319Z,-1.23
2019-01-14T21:57:15.811Z,-1.24
2019-01-14T21:59:44.307Z,-1.22
2019-01-14T22:02:12.918Z,-1.22
2019-01-14T22:04:42.073Z,-1.24
2019-01-14T22:07:10.426Z,-1.23
2019-01-14T22:09:58.071Z,-1.24
2019-01-14T22:13:06.304Z,-1.29
2019-01-14T22:15:34.458Z,-1.30
2019-01-14T22:18:02.883Z,-1.30
2019-01-14T22:20:30.643Z,-1.38
2019-01-14T22:22:59.248Z,-1.44
2019-01-14T22:25:26.679Z,-1.51
2019-01-14T22:27:55.152Z,-1.49
2019-01-14T22:30:42.683Z,-1.50
2019-01-14T22:33:11.068Z,-1.51
2019-01-14T22:35:39.250Z,-1.37
2019-01-14T22:38:07.733Z,-1.29
2019-01-14T22:40:35.178Z,-1.29
2019-01-14T22:43:04.345Z,-1.30
2019-01-14T22:45:32.905Z,-1.33
2019-01-14T22:48:00.976Z,-1.37
2019-01-14T22:50:29.039Z,-1.37
2019-01-14T22:52:56.811Z,-1.24
2019-01-14T22:55:24.909Z,-1.27
2019-01-14T23:01:31.914Z,-1.10
2019-01-14T23:04:00.331Z,-1.05
2019-01-14T23:06:28.411Z,-1.13
2019-01-14T23:08:56.420Z,-1.03
2019-01-14T23:11:24.148Z,-0.97
2019-01-14T23:13:52.699Z,-0.95
2019-01-14T23:16:21.242Z,-0.97
2019-01-14T23:18:49.677Z,-0.97
2019-01-14T23:21:18.460Z,-1.01
2019-01-14T23:23:46.592Z,-1.09
2019-01-14T23:26:14.673Z,-1.09
2019-01-14T23:28:43.153Z,-1.09
2019-01-14T23:31:11.227Z,-1.10
2019-01-14T23:33:39.637Z,-1.13
2019-01-14T23:36:08.216Z,-1.16
2019-01-14T23:38:36.223Z,-1.17
2019-01-14T23:41:44.346Z,-1.11
2019-01-14T23:44:12.028Z,-1.21
2019-01-14T23:46:39.688Z,-1.18
2019-01-14T23:49:08.304Z,-1.20
2019-01-14T23:51:36.459Z,-1.20
2019-01-14T23:54:04.250Z,-1.16
2019-01-14T23:56:32.767Z,-1.20
2019-01-14T23:59:01.210Z,-1.20
